Time,TemperatureF,DewpointF,PressureIn,WindDirection,WindDirectionDegrees,WindSpeedMPH,WindSpeedGustMPH,Humidity,HourlyPrecipIn,Conditions,Clouds,dailyrainin,SoftwareType,DateUTC
2013-07-16 00:04:00,67.9,66.1,30.42,NNE,18,0.0,0.0,94,0.00,,,0.00,WeatherCatV1.15B25,2013-07-16 04:04:00,
2013-07-16 00:09:00,67.8,66.0,30.42,NNE,18,0.0,0.0,94,0.00,,,0.00,WeatherCatV1.15B25,2013-07-16 04:09:00,
2013-07-16 00:14:00,67.7,65.9,30.43,NNE,18,0.0,0.0,94,0.00,,,0.00,WeatherCatV1.15B25,2013-07-16 04:14:00,
2013-07-16 00:19:00,67.7,65.9,30.43,NNE,19,0.0,0.0,94,0.00,,,0.00,WeatherCatV1.15B25,2013-07-16 04:19:00,
2013-07-16 00:24:00,67.6,65.8,30.42,NNE,18,0.0,0.0,94,0.00,,,0.00,WeatherCatV1.15B25,2013-07-16 04:24:00,
2013-07-16 00:29:00,67.6,65.8,30.42,NNE,19,0.0,0.0,94,0.00,,,0.00,WeatherCatV1.15B25,2013-07-16 04:29:00,
2013-07-16 00:34:00,67.6,66.1,30.42,NNE,18,0.0,0.0,95,0.00,,,0.00,WeatherCatV1.15B25,2013-07-16 04:34:00,
2013-07-16 00:39:00,67.6,65.8,30.42,NNE,19,0.0,0.0,94,0.00,,,0.00,WeatherCatV1.15B25,2013-07-16 04:39:00,
2013-07-16 00:44:00,67.6,65.8,30.42,NNE,19,0.0,0.0,94,0.00,,,0.00,WeatherCatV1.15B25,2013-07-16 04:44:00,
2013-07-16 00:49:00,67.6,65.8,30.42,NNE,19,0.0,0.0,94,0.00,,,0.00,WeatherCatV1.15B25,2013-07-16 04:49:00,
2013-07-16 00:54:00,67.6,65.8,30.42,NNE,19,0.0,0.0,94,0.00,,,0.00,WeatherCatV1.15B25,2013-07-16 04:54:00,
2013-07-16 00:59:00,67.6,65.8,30.42,NNE,18,0.0,0.0,94,0.00,,,0.00,WeatherCatV1.15B25,2013-07-16 04:59:00,
2013-07-16 01:04:00,67.5,65.7,30.42,NNE,18,0.0,0.0,94,0.00,,,0.00,WeatherCatV1.15B25,2013-07-16 05:04:00,
2013-07-16 01:09:00,67.4,65.6,30.42,NNE,18,0.0,0.0,94,0.00,,,0.00,WeatherCatV1.15B25,2013-07-16 05:09:00,
2013-07-16 01:14:00,67.4,65.6,30.42,NNE,19,0.0,0.0,94,0.00,,,0.00,WeatherCatV1.15B25,2013-07-16 05:14:00,
2013-07-16 01:19:00,67.3,65.5,30.42,NNE,18,0.0,0.0,94,0.00,,,0.00,WeatherCatV1.15B25,2013-07-16 05:19:00,
2013-07-16 01:24:00,67.3,65.8,30.42,NNE,18,0.0,0.0,95,0.00,,,0.00,WeatherCatV1.15B25,2013-07-16 05:24:00,
2013-07-16 01:29:00,67.2,65.4,30.42,NNE,18,0.0,0.0,94,0.00,,,0.00,WeatherCatV1.15B25,2013-07-16 05:29:00,
2013-07-16 01:34:00,67.1,65.6,30.42,NNE,19,0.0,0.0,95,0.00,,,0.00,WeatherCatV1.15B25,2013-07-16 05:34:00,
2013-07-16 01:39:00,67.0,65.2,30.42,NNE,18,0.0,0.0,94,0.00,,,0.00,WeatherCatV1.15B25,2013-07-16 05:39:00,
2013-07-16 01:44:00,66.8,65.3,30.42,NNE,18,0.0,0.0,95,0.00,,,0.00,WeatherCatV1.15B25,2013-07-16 05:44:00,
2013-07-16 01:49:00,66.7,65.2,30.42,NNE,18,0.0,0.0,95,0.00,,,0.00,WeatherCatV1.15B25,2013-07-16 05:49:00,
2013-07-16 01:54:00,66.6,65.1,30.42,NNE,19,0.0,0.0,95,0.00,,,0.00,WeatherCatV1.15B25,2013-07-16 05:54:00,
2013-07-16 01:59:00,66.5,65.0,30.42,NNE,18,0.0,0.0,95,0.00,,,0.00,WeatherCatV1.15B25,2013-07-16 05:59:00,
2013-07-16 02:04:00,66.4,64.9,30.42,NNE,18,0.0,0.0,95,0.00,,,0.00,WeatherCatV1.15B25,2013-07-16 06:04:00,
2013-07-16 02:09:00,66.4,65.2,30.42,NNE,18,0.0,0.0,96,0.00,,,0.00,WeatherCatV1.15B25,2013-07-16 06:09:00,
2013-07-16 02:14:00,66.2,64.7,30.42,NNE,18,0.0,0.0,95,0.00,,,0.00,WeatherCatV1.15B25,2013-07-16 06:14:00,
2013-07-16 02:19:00,66.1,64.9,30.42,NNE,18,0.0,0.0,96,0.00,,,0.00,WeatherCatV1.15B25,2013-07-16 06:19:00,
2013-07-16 02:24:00,66.1,64.9,30.42,NNE,18,0.0,0.0,96,0.00,,,0.00,WeatherCatV1.15B25,2013-07-16 06:24:00,
2013-07-16 02:29:00,66.0,64.8,30.42,NNE,18,0.0,0.0,96,0.00,,,0.00,WeatherCatV1.15B25,2013-07-16 06:29:00,
2013-07-16 02:34:00,66.0,64.8,30.41,NNE,18,0.0,0.0,96,0.00,,,0.00,WeatherCatV1.15B25,2013-07-16 06:34:00,
2013-07-16 02:39:00,66.0,64.8,30.42,NNE,18,0.0,0.0,96,0.00,,,0.00,WeatherCatV1.15B25,2013-07-16 06:39:00,
2013-07-16 02:44:00,66.1,64.9,30.42,NNE,19,0.0,0.0,96,0.00,,,0.00,WeatherCatV1.15B25,2013-07-16 06:44:00,
2013-07-16 02:49:00,66.0,65.1,30.42,NNE,19,0.0,0.0,97,0.00,,,0.00,WeatherCatV1.15B25,2013-07-16 06:49:00,
2013-07-16 02:54:00,66.0,65.1,30.42,NNE,18,0.0,0.0,97,0.00,,,0.00,WeatherCatV1.15B25,2013-07-16 06:54:00,
2013-07-16 02:59:00,66.1,65.2,30.42,NNE,18,0.0,0.0,97,0.00,,,0.00,WeatherCatV1.15B25,2013-07-16 06:59:00,
2013-07-16 03:04:00,65.9,64.7,30.42,NNE,18,0.0,0.0,96,0.00,,,0.00,WeatherCatV1.15B25,2013-07-16 07:04:00,
2013-07-16 03:09:00,65.9,65.0,30.42,NNE,18,0.0,0.0,97,0.00,,,0.00,WeatherCatV1.15B25,2013-07-16 07:09:00,
2013-07-16 03:14:00,65.9,65.0,30.42,NNE,19,0.0,0.0,97,0.00,,,0.00,WeatherCatV1.15B25,2013-07-16 07:14:00,
2013-07-16 03:19:00,65.8,64.9,30.41,NNE,19,0.0,0.0,97,0.00,,,0.00,WeatherCatV1.15B25,2013-07-16 07:19:00,
2013-07-16 03:24:00,65.8,64.9,30.41,NNE,18,0.0,0.0,97,0.00,,,0.00,WeatherCatV1.15B25,2013-07-16 07:24:00,
2013-07-16 03:29:00,65.8,64.9,30.41,NNE,18,0.0,0.0,97,0.00,,,0.00,WeatherCatV1.15B25,2013-07-16 07:29:00,
2013-07-16 03:34:00,65.7,64.8,30.41,NNE,19,0.0,0.0,97,0.00,,,0.00,WeatherCatV1.15B25,2013-07-16 07:34:00,
2013-07-16 03:39:00,65.7,64.8,30.41,NNE,18,0.0,0.0,97,0.00,,,0.00,WeatherCatV1.15B25,2013-07-16 07:39:00,
2013-07-16 03:44:00,65.6,64.4,30.42,NNE,19,0.0,0.0,96,0.00,,,0.00,WeatherCatV1.15B25,2013-07-16 07:44:00,
2013-07-16 03:49:00,65.6,64.7,30.41,NNE,18,0.0,0.0,97,0.00,,,0.00,WeatherCatV1.15B25,2013-07-16 07:49:00,
2013-07-16 03:54:00,65.6,64.7,30.41,NNE,19,0.0,0.0,97,0.00,,,0.00,WeatherCatV1.15B25,2013-07-16 07:54:00,
2013-07-16 03:59:00,65.5,64.6,30.41,NNE,18,0.0,0.0,97,0.00,,,0.00,WeatherCatV1.15B25,2013-07-16 07:59:00,
2013-07-16 04:04:00,65.5,64.6,30.41,NNE,18,0.0,0.0,97,0.00,,,0.00,WeatherCatV1.15B25,2013-07-16 08:04:00,
2013-07-16 04:09:00,65.5,64.6,30.41,NNE,18,0.0,0.0,97,0.00,,,0.00,WeatherCatV1.15B25,2013-07-16 08:09:00,
2013-07-16 04:14:00,65.4,64.5,30.41,NNE,18,0.0,0.0,97,0.00,,,0.00,WeatherCatV1.15B25,2013-07-16 08:14:00,
2013-07-16 04:19:00,65.4,64.5,30.41,NNE,18,0.0,0.0,97,0.00,,,0.00,WeatherCatV1.15B25,2013-07-16 08:19:00,
2013-07-16 04:24:00,65.3,64.4,30.41,NNE,19,0.0,0.0,97,0.00,,,0.00,WeatherCatV1.15B25,2013-07-16 08:24:00,
2013-07-16 04:29:00,65.2,64.3,30.41,NNE,19,0.0,0.0,97,0.00,,,0.00,WeatherCatV1.15B25,2013-07-16 08:29:00,
2013-07-16 04:34:00,65.2,64.3,30.41,NNE,18,0.0,0.0,97,0.00,,,0.00,WeatherCatV1.15B25,2013-07-16 08:34:00,
2013-07-16 04:39:00,65.2,64.3,30.41,NNE,19,0.0,0.0,97,0.00,,,0.00,WeatherCatV1.15B25,2013-07-16 08:39:00,
2013-07-16 04:44:00,65.2,64.3,30.41,NNE,18,0.0,0.0,97,0.00,,,0.00,WeatherCatV1.15B25,2013-07-16 08:44:00,
2013-07-16 04:49:00,65.2,64.3,30.41,NNE,19,0.0,0.0,97,0.00,,,0.00,WeatherCatV1.15B25,2013-07-16 08:49:00,
2013-07-16 04:54:00,65.2,64.3,30.41,NNE,18,0.0,0.0,97,0.00,,,0.00,WeatherCatV1.15B25,2013-07-16 08:54:00,
2013-07-16 04:59:00,65.1,64.2,30.41,NNE,18,0.0,0.0,97,0.00,,,0.00,WeatherCatV1.15B25,2013-07-16 08:59:00,
2013-07-16 05:04:00,65.1,64.2,30.41,NNE,18,0.0,0.0,97,0.00,,,0.00,WeatherCatV1.15B25,2013-07-16 09:04:00,
2013-07-16 05:09:00,65.1,64.2,30.41,NNE,18,0.0,0.0,97,0.00,,,0.00,WeatherCatV1.15B25,2013-07-16 09:09:00,
2013-07-16 05:14:00,65.1,64.2,30.41,NNE,18,0.0,0.0,97,0.00,,,0.00,WeatherCatV1.15B25,2013-07-16 09:14:00,
2013-07-16 05:19:00,65.0,64.1,30.41,NNE,18,0.0,0.0,97,0.00,,,0.00,WeatherCatV1.15B25,2013-07-16 09:19:00,
2013-07-16 05:24:00,65.0,64.1,30.41,NNE,19,0.0,0.0,97,0.00,,,0.00,WeatherCatV1.15B25,2013-07-16 09:24:00,
2013-07-16 05:29:00,65.0,64.1,30.41,NNE,19,0.0,0.0,97,0.00,,,0.00,WeatherCatV1.15B25,2013-07-16 09:29:00,
2013-07-16 05:34:00,64.9,64.0,30.41,NNE,18,0.0,0.0,97,0.00,,,0.00,WeatherCatV1.15B25,2013-07-16 09:34:00,
2013-07-16 05:44:00,64.7,63.8,30.41,NNE,18,0.0,0.0,97,0.00,,,0.00,WeatherCatV1.15B25,2013-07-16 09:44:00,
2013-07-16 05:49:00,64.7,63.8,30.41,NNE,18,0.0,0.0,97,0.00,,,0.00,WeatherCatV1.15B25,2013-07-16 09:49:00,
2013-07-16 05:54:00,64.6,64.0,30.41,NNE,18,0.0,0.0,98,0.00,,,0.00,WeatherCatV1.15B25,2013-07-16 09:54:00,
2013-07-16 05:59:00,64.5,63.6,30.41,NNE,19,0.0,0.0,97,0.00,,,0.00,WeatherCatV1.15B25,2013-07-16 09:59:00,
2013-07-16 06:04:00,64.5,63.6,30.42,NNE,18,0.0,0.0,97,0.00,,,0.00,WeatherCatV1.15B25,2013-07-16 10:04:00,
2013-07-16 06:09:00,64.4,63.5,30.42,NNE,18,0.0,0.0,97,0.00,,,0.00,WeatherCatV1.15B25,2013-07-16 10:09:00,
2013-07-16 06:14:00,64.3,63.4,30.42,NNE,19,0.0,0.0,97,0.00,,,0.00,WeatherCatV1.15B25,2013-07-16 10:14:00,
2013-07-16 06:19:00,64.2,63.3,30.42,NNE,19,0.0,0.0,97,0.00,,,0.00,WeatherCatV1.15B25,2013-07-16 10:19:00,
2013-07-16 06:24:00,64.2,63.3,30.42,NNE,18,0.0,0.0,97,0.00,,,0.00,WeatherCatV1.15B25,2013-07-16 10:24:00,
2013-07-16 06:29:00,64.0,63.1,30.42,NNE,18,0.0,0.0,97,0.00,,,0.00,WeatherCatV1.15B25,2013-07-16 10:29:00,
2013-07-16 06:34:00,63.9,63.0,30.42,NNE,19,0.0,0.0,97,0.00,,,0.00,WeatherCatV1.15B25,2013-07-16 10:34:00,
2013-07-16 06:39:00,63.9,63.0,30.42,NNE,18,0.0,0.0,97,0.00,,,0.00,WeatherCatV1.15B25,2013-07-16 10:39:00,
2013-07-16 06:44:00,63.9,63.3,30.42,NNE,18,0.0,0.0,98,0.00,,,0.00,WeatherCatV1.15B25,2013-07-16 10:44:00,
2013-07-16 06:49:00,63.9,63.0,30.42,NNE,18,0.0,0.0,97,0.00,,,0.00,WeatherCatV1.15B25,2013-07-16 10:49:00,
2013-07-16 06:54:00,63.8,62.9,30.42,NNE,19,0.0,0.0,97,0.00,,,0.00,WeatherCatV1.15B25,2013-07-16 10:54:00,
2013-07-16 06:59:00,63.7,62.8,30.42,NNE,18,0.0,0.0,97,0.00,,,0.00,WeatherCatV1.15B25,2013-07-16 10:59:00,
2013-07-16 07:04:00,63.7,63.1,30.42,NNE,18,0.0,0.0,98,0.00,,,0.00,WeatherCatV1.15B25,2013-07-16 11:04:00,
2013-07-16 07:14:00,63.7,63.1,30.42,NNE,18,0.0,0.0,98,0.00,,,0.00,WeatherCatV1.15B25,2013-07-16 11:14:00,
2013-07-16 07:19:00,63.7,63.1,30.42,NNE,18,0.0,0.0,98,0.00,,,0.00,WeatherCatV1.15B25,2013-07-16 11:19:00,
2013-07-16 07:24:00,63.7,63.1,30.42,NNE,18,0.0,0.0,98,0.00,,,0.00,WeatherCatV1.15B25,2013-07-16 11:24:00,
2013-07-16 07:29:00,63.7,63.1,30.42,NNE,18,0.0,0.0,98,0.00,,,0.00,WeatherCatV1.15B25,2013-07-16 11:29:00,
2013-07-16 07:34:00,63.8,63.2,30.43,NNE,19,0.0,0.0,98,0.00,,,0.00,WeatherCatV1.15B25,2013-07-16 11:34:00,
2013-07-16 07:39:00,63.8,63.2,30.43,NNE,18,0.0,0.0,98,0.00,,,0.00,WeatherCatV1.15B25,2013-07-16 11:39:00,
2013-07-16 07:44:00,63.9,63.3,30.43,NNE,19,0.0,0.0,98,0.00,,,0.00,WeatherCatV1.15B25,2013-07-16 11:44:00,
2013-07-16 07:49:00,64.0,63.4,30.43,NNE,19,0.0,0.0,98,0.00,,,0.00,WeatherCatV1.15B25,2013-07-16 11:49:00,
2013-07-16 07:54:00,64.0,63.4,30.43,NNE,18,0.0,0.0,98,0.00,,,0.00,WeatherCatV1.15B25,2013-07-16 11:54:00,
2013-07-16 07:59:00,64.0,63.4,30.43,NNE,18,0.0,0.0,98,0.00,,,0.00,WeatherCatV1.15B25,2013-07-16 11:59:00,
2013-07-16 08:04:00,64.1,63.5,30.43,NNE,18,0.0,0.0,98,0.00,,,0.00,WeatherCatV1.15B25,2013-07-16 12:04:00,
2013-07-16 08:14:00,64.4,64.1,30.43,NNE,18,0.0,0.0,99,0.00,,,0.00,WeatherCatV1.15B25,2013-07-16 12:14:00,
2013-07-16 08:19:00,64.5,63.9,30.43,NNE,19,0.0,0.0,98,0.00,,,0.00,WeatherCatV1.15B25,2013-07-16 12:19:00,
2013-07-16 08:24:00,65.0,64.7,30.44,NNE,19,0.0,0.0,99,0.00,,,0.00,WeatherCatV1.15B25,2013-07-16 12:24:00,
2013-07-16 08:29:00,65.6,65.3,30.44,NNE,19,0.0,0.0,99,0.00,,,0.00,WeatherCatV1.15B25,2013-07-16 12:29:00,
2013-07-16 08:34:00,66.1,65.8,30.44,NNE,19,0.0,0.0,99,0.00,,,0.00,WeatherCatV1.15B25,2013-07-16 12:34:00,
2013-07-16 08:39:00,66.2,65.6,30.44,NNE,18,0.0,0.0,98,0.00,,,0.00,WeatherCatV1.15B25,2013-07-16 12:39:00,
2013-07-16 08:44:00,66.5,65.9,30.44,NNE,19,0.0,0.0,98,0.00,,,0.00,WeatherCatV1.15B25,2013-07-16 12:44:00,
2013-07-16 08:49:00,67.3,66.4,30.44,NNE,18,0.0,0.0,97,0.00,,,0.00,WeatherCatV1.15B25,2013-07-16 12:49:00,
2013-07-16 08:59:00,69.4,67.3,30.44,NNE,18,0.0,0.0,93,0.00,,,0.00,WeatherCatV1.15B25,2013-07-16 12:59:00,
2013-07-16 09:04:00,70.4,67.6,30.44,NNE,18,0.0,0.0,91,0.00,,,0.00,WeatherCatV1.15B25,2013-07-16 13:04:00,
2013-07-16 09:09:00,70.6,67.8,30.44,NNE,17,0.0,0.0,91,0.00,,,0.00,WeatherCatV1.15B25,2013-07-16 13:09:00,
2013-07-16 09:14:00,70.6,67.5,30.44,NNE,17,0.0,0.0,90,0.00,,,0.00,WeatherCatV1.15B25,2013-07-16 13:14:00,
2013-07-16 09:19:00,71.2,68.1,30.44,NNE,17,0.0,0.0,90,0.00,,,0.00,WeatherCatV1.15B25,2013-07-16 13:19:00,
2013-07-16 09:24:00,71.5,68.4,30.44,West,281,0.0,1.0,90,0.00,,,0.00,WeatherCatV1.15B25,2013-07-16 13:24:00,
2013-07-16 09:29:00,71.9,68.5,30.44,West,281,0.0,1.0,89,0.00,,,0.00,WeatherCatV1.15B25,2013-07-16 13:29:00,
2013-07-16 09:34:00,72.2,68.4,30.44,West,281,0.0,0.0,88,0.00,,,0.00,WeatherCatV1.15B25,2013-07-16 13:34:00,
2013-07-16 09:39:00,72.6,68.8,30.44,West,280,0.0,0.0,88,0.00,,,0.00,WeatherCatV1.15B25,2013-07-16 13:39:00,
2013-07-16 09:44:00,73.0,69.2,30.44,West,280,0.0,1.0,88,0.00,,,0.00,WeatherCatV1.15B25,2013-07-16 13:44:00,
2013-07-16 09:49:00,73.2,69.1,30.44,SW,236,0.0,1.0,87,0.00,,,0.00,WeatherCatV1.15B25,2013-07-16 13:49:00,
2013-07-16 09:54:00,73.6,69.5,30.44,SW,236,0.0,0.0,87,0.00,,,0.00,WeatherCatV1.15B25,2013-07-16 13:54:00,
2013-07-16 09:59:00,74.4,70.3,30.44,SW,236,0.0,0.0,87,0.00,,,0.00,WeatherCatV1.15B25,2013-07-16 13:59:00,
2013-07-16 10:04:00,75.2,70.4,30.44,SW,236,0.0,0.0,85,0.00,,,0.00,WeatherCatV1.15B25,2013-07-16 14:04:00,
2013-07-16 10:09:00,75.9,70.7,30.44,SW,236,0.0,1.0,84,0.00,,,0.00,WeatherCatV1.15B25,2013-07-16 14:09:00,
2013-07-16 10:19:00,77.0,71.1,30.44,SW,235,0.0,1.0,82,0.00,,,0.00,WeatherCatV1.15B25,2013-07-16 14:19:00,
2013-07-16 10:24:00,77.5,70.8,30.44,SE,145,0.0,1.0,80,0.00,,,0.00,WeatherCatV1.15B25,2013-07-16 14:24:00,
2013-07-16 10:29:00,77.9,70.5,30.44,SSW,196,0.0,1.0,78,0.00,,,0.00,WeatherCatV1.15B25,2013-07-16 14:29:00,
2013-07-16 10:34:00,78.1,69.9,30.44,SSW,210,0.0,1.0,76,0.00,,,0.00,WeatherCatV1.15B25,2013-07-16 14:34:00,
2013-07-16 10:39:00,78.3,69.7,30.44,SSW,213,0.0,5.0,75,0.00,,,0.00,WeatherCatV1.15B25,2013-07-16 14:39:00,
2013-07-16 10:44:00,78.4,69.8,30.44,SW,221,3.0,3.0,75,0.00,,,0.00,WeatherCatV1.15B25,2013-07-16 14:44:00,
2013-07-16 10:49:00,78.4,70.2,30.44,South,180,0.0,1.0,76,0.00,,,0.00,WeatherCatV1.15B25,2013-07-16 14:49:00,
2013-07-16 10:54:00,78.3,69.7,30.44,NNE,21,0.0,3.0,75,0.00,,,0.00,WeatherCatV1.15B25,2013-07-16 14:54:00,
2013-07-16 10:59:00,78.4,69.8,30.44,SSW,207,1.0,2.0,75,0.00,,,0.00,WeatherCatV1.15B25,2013-07-16 14:59:00,
2013-07-16 11:04:00,78.5,70.7,30.43,WSW,238,3.0,7.0,77,0.00,,,0.00,WeatherCatV1.15B25,2013-07-16 15:04:00,
2013-07-16 11:09:00,78.5,70.3,30.43,SSE,155,1.0,3.0,76,0.00,,,0.00,WeatherCatV1.15B25,2013-07-16 15:09:00,
2013-07-16 11:14:00,78.5,70.3,30.43,South,186,0.0,2.0,76,0.00,,,0.00,WeatherCatV1.15B25,2013-07-16 15:14:00,
2013-07-16 11:19:00,78.7,69.3,30.43,ESE,116,1.0,5.0,73,0.00,,,0.00,WeatherCatV1.15B25,2013-07-16 15:19:00,
2013-07-16 11:24:00,78.9,69.9,30.43,WSW,239,1.0,6.0,74,0.00,,,0.00,WeatherCatV1.15B25,2013-07-16 15:24:00,
2013-07-16 11:29:00,78.9,70.7,30.43,WSW,254,2.0,7.0,76,0.00,,,0.00,WeatherCatV1.15B25,2013-07-16 15:29:00,
2013-07-16 11:34:00,79.1,70.9,30.43,SSE,161,2.0,4.0,76,0.00,,,0.00,WeatherCatV1.15B25,2013-07-16 15:34:00,
2013-07-16 11:39:00,79.3,70.7,30.43,SW,222,0.0,2.0,75,0.00,,,0.00,WeatherCatV1.15B25,2013-07-16 15:39:00,
2013-07-16 11:44:00,79.6,70.6,30.43,South,170,1.0,4.0,74,0.00,,,0.00,WeatherCatV1.15B25,2013-07-16 15:44:00,
2013-07-16 11:49:00,79.8,71.1,30.43,South,178,1.0,6.0,75,0.00,,,0.00,WeatherCatV1.15B25,2013-07-16 15:49:00,
2013-07-16 11:54:00,79.9,70.4,30.43,SSW,202,2.0,3.0,73,0.00,,,0.00,WeatherCatV1.15B25,2013-07-16 15:54:00,
2013-07-16 11:59:00,80.1,70.6,30.43,South,186,2.0,4.0,73,0.00,,,0.00,WeatherCatV1.15B25,2013-07-16 15:59:00,
2013-07-16 12:04:00,80.1,70.2,30.42,SSE,167,0.0,1.0,72,0.00,,,0.00,WeatherCatV1.15B25,2013-07-16 16:04:00,
2013-07-16 12:09:00,80.2,70.7,30.42,SSW,198,2.0,5.0,73,0.00,,,0.00,WeatherCatV1.15B25,2013-07-16 16:09:00,
2013-07-16 12:14:00,80.4,71.3,30.42,SSE,167,0.0,3.0,74,0.00,,,0.00,WeatherCatV1.15B25,2013-07-16 16:14:00,
2013-07-16 12:19:00,80.5,70.6,30.42,SW,221,1.0,3.0,72,0.00,,,0.00,WeatherCatV1.15B25,2013-07-16 16:19:00,
2013-07-16 12:29:00,81.4,71.1,30.42,South,169,1.0,2.0,71,0.00,,,0.00,WeatherCatV1.15B25,2013-07-16 16:29:00,
2013-07-16 12:34:00,81.7,71.4,30.42,South,183,0.0,3.0,71,0.00,,,0.00,WeatherCatV1.15B25,2013-07-16 16:34:00,
2013-07-16 12:39:00,82.0,70.8,30.42,SSW,213,2.0,4.0,69,0.00,,,0.00,WeatherCatV1.15B25,2013-07-16 16:39:00,
2013-07-16 12:40:00,82.0,70.4,30.42,SSE,167,1.0,4.0,68,0.00,,,0.00,WeatherCatV1.15B25,2013-07-16 16:40:00,
2013-07-16 12:44:00,82.2,71.0,30.42,SW,229,3.0,6.0,69,0.00,,,0.00,WeatherCatV1.15B25,2013-07-16 16:44:00,
2013-07-16 12:45:00,82.2,71.0,30.42,SSW,203,1.0,4.0,69,0.00,,,0.00,WeatherCatV1.15B25,2013-07-16 16:45:00,
2013-07-16 12:50:00,82.4,71.2,30.42,SW,228,1.0,2.0,69,0.00,,,0.00,WeatherCatV1.15B25,2013-07-16 16:50:00,
2013-07-16 12:55:00,82.2,70.1,30.41,SSW,198,1.0,2.0,67,0.00,,,0.00,WeatherCatV1.15B25,2013-07-16 16:55:00,
2013-07-16 13:00:00,82.3,71.1,30.41,SSE,158,1.0,0.0,69,0.00,,,0.00,WeatherCatV1.15B25,2013-07-16 17:00:00,
2013-07-16 13:05:00,82.6,70.9,30.41,ESE,106,1.0,3.0,68,0.00,,,0.00,WeatherCatV1.15B25,2013-07-16 17:05:00,
2013-07-16 13:10:00,83.0,71.3,30.41,SSE,159,1.0,3.0,68,0.00,,,0.00,WeatherCatV1.15B25,2013-07-16 17:10:00,
2013-07-16 13:15:00,83.2,71.1,30.41,SE,129,1.0,1.0,67,0.00,,,0.00,WeatherCatV1.15B25,2013-07-16 17:15:00,
2013-07-16 13:20:00,83.4,70.8,30.41,ESE,105,1.0,3.0,66,0.00,,,0.00,WeatherCatV1.15B25,2013-07-16 17:20:00,
2013-07-16 13:25:00,83.5,70.0,30.41,South,183,1.0,2.0,64,0.00,,,0.00,WeatherCatV1.15B25,2013-07-16 17:25:00,
2013-07-16 13:30:00,84.0,70.5,30.40,SE,128,1.0,1.0,64,0.00,,,0.00,WeatherCatV1.15B25,2013-07-16 17:30:00,
2013-07-16 13:35:00,84.3,71.2,30.40,South,191,1.0,3.0,65,0.00,,,0.00,WeatherCatV1.15B25,2013-07-16 17:35:00,
2013-07-16 13:40:00,84.1,70.1,30.40,SSW,194,1.0,2.0,63,0.00,,,0.00,WeatherCatV1.15B25,2013-07-16 17:40:00,
2013-07-16 13:45:00,83.7,70.7,30.40,SE,124,1.0,1.0,65,0.00,,,0.00,WeatherCatV1.15B25,2013-07-16 17:45:00,
2013-07-16 13:50:00,84.1,71.5,30.40,ENE,74,1.0,3.0,66,0.00,,,0.00,WeatherCatV1.15B25,2013-07-16 17:50:00,
2013-07-16 13:55:00,83.8,68.9,30.40,East,86,1.0,2.0,61,0.00,,,0.00,WeatherCatV1.15B25,2013-07-16 17:55:00,
2013-07-16 14:00:00,84.3,71.7,30.40,ENE,63,1.0,0.0,66,0.00,,,0.00,WeatherCatV1.15B25,2013-07-16 18:00:00,
2013-07-16 14:05:00,84.7,71.6,30.40,ENE,58,0.0,1.0,65,0.00,,,0.00,WeatherCatV1.15B25,2013-07-16 18:05:00,
2013-07-16 14:10:00,84.7,70.7,30.40,South,179,1.0,2.0,63,0.00,,,0.00,WeatherCatV1.15B25,2013-07-16 18:10:00,
2013-07-16 14:15:00,84.8,70.3,30.39,SSW,198,1.0,2.0,62,0.00,,,0.00,WeatherCatV1.15B25,2013-07-16 18:15:00,
2013-07-16 14:20:00,84.8,69.8,30.39,SSW,205,1.0,2.0,61,0.00,,,0.00,WeatherCatV1.15B25,2013-07-16 18:20:00,
2013-07-16 14:25:00,85.4,70.4,30.39,SW,219,1.0,2.0,61,0.00,,,0.00,WeatherCatV1.15B25,2013-07-16 18:25:00,
2013-07-16 14:30:00,85.7,70.2,30.39,SSW,202,0.0,0.0,60,0.00,,,0.00,WeatherCatV1.15B25,2013-07-16 18:30:00,
2013-07-16 14:35:00,85.6,72.0,30.39,SE,136,0.0,0.0,64,0.00,,,0.00,WeatherCatV1.15B25,2013-07-16 18:35:00,
2013-07-16 14:40:00,85.5,71.9,30.39,ENE,78,0.0,1.0,64,0.00,,,0.00,WeatherCatV1.15B25,2013-07-16 18:40:00,
2013-07-16 14:45:00,85.1,73.3,30.39,NE,53,0.0,1.0,68,0.00,,,0.00,WeatherCatV1.15B25,2013-07-16 18:45:00,
2013-07-16 14:50:00,84.5,73.6,30.39,NE,45,0.0,1.0,70,0.00,,,0.00,WeatherCatV1.15B25,2013-07-16 18:50:00,
2013-07-16 14:55:00,84.7,74.2,30.39,NE,45,0.0,1.0,71,0.00,,,0.00,WeatherCatV1.15B25,2013-07-16 18:55:00,
2013-07-16 15:00:00,84.7,71.1,30.38,North,6,0.0,3.0,64,0.00,,,0.00,WeatherCatV1.15B25,2013-07-16 19:00:00,
2013-07-16 15:05:00,85.1,71.5,30.38,West,268,1.0,4.0,64,0.00,,,0.00,WeatherCatV1.15B25,2013-07-16 19:05:00,
2013-07-16 15:10:00,85.5,71.0,30.38,SW,225,1.0,2.0,62,0.00,,,0.00,WeatherCatV1.15B25,2013-07-16 19:10:00,
2013-07-16 15:15:00,85.8,71.2,30.38,East,97,1.0,2.0,62,0.00,,,0.00,WeatherCatV1.15B25,2013-07-16 19:15:00,
2013-07-16 15:20:00,86.3,71.2,30.38,East,86,1.0,1.0,61,0.00,,,0.00,WeatherCatV1.15B25,2013-07-16 19:20:00,
2013-07-16 15:25:00,87.0,72.4,30.38,East,82,0.0,1.0,62,0.00,,,0.00,WeatherCatV1.15B25,2013-07-16 19:25:00,
2013-07-16 15:30:00,87.1,70.5,30.38,SSE,151,1.0,1.0,58,0.00,,,0.00,WeatherCatV1.15B25,2013-07-16 19:30:00,
2013-07-16 15:35:00,86.8,71.2,30.37,South,179,1.0,2.0,60,0.00,,,0.00,WeatherCatV1.15B25,2013-07-16 19:35:00,
2013-07-16 15:40:00,86.4,74.1,30.37,SSW,193,1.0,0.0,67,0.00,,,0.00,WeatherCatV1.15B25,2013-07-16 19:40:00,
2013-07-16 15:45:00,86.4,72.3,30.37,ESE,115,0.0,2.0,63,0.00,,,0.00,WeatherCatV1.15B25,2013-07-16 19:45:00,
2013-07-16 15:50:00,86.7,71.1,30.37,East,80,1.0,2.0,60,0.00,,,0.00,WeatherCatV1.15B25,2013-07-16 19:50:00,
2013-07-16 15:55:00,86.8,71.2,30.37,East,88,1.0,1.0,60,0.00,,,0.00,WeatherCatV1.15B25,2013-07-16 19:55:00,
2013-07-16 16:00:00,86.4,73.2,30.37,ENE,76,0.0,1.0,65,0.00,,,0.00,WeatherCatV1.15B25,2013-07-16 20:00:00,
2013-07-16 16:05:00,85.6,72.9,30.38,ENE,61,0.0,1.0,66,0.00,,,0.00,WeatherCatV1.15B25,2013-07-16 20:05:00,
2013-07-16 16:10:00,84.7,72.5,30.39,NE,42,1.0,3.0,67,0.00,,,0.00,WeatherCatV1.15B25,2013-07-16 20:10:00,
2013-07-16 16:24:00,83.2,70.6,30.39,ENE,68,2.0,2.0,66,0.00,,,0.00,WeatherCatV1.15B25,2013-07-16 20:24:00,
2013-07-16 16:29:00,74.6,69.1,30.39,North,5,0.0,1.0,83,1.25,,,0.57,WeatherCatV1.15B25,2013-07-16 20:29:00,
2013-07-16 16:34:00,72.8,68.4,30.38,North,5,0.0,2.0,86,0.37,,,0.60,WeatherCatV1.15B25,2013-07-16 20:34:00,
2013-07-16 16:39:00,71.6,67.8,30.40,ESE,105,2.0,4.0,88,0.21,,,0.62,WeatherCatV1.15B25,2013-07-16 20:39:00,
2013-07-16 16:44:00,70.4,67.0,30.39,ENE,61,1.0,1.0,89,0.08,,,0.62,WeatherCatV1.15B25,2013-07-16 20:44:00,
2013-07-16 16:49:00,70.1,68.0,30.39,ENE,61,0.0,0.0,93,0.05,,,0.62,WeatherCatV1.15B25,2013-07-16 20:49:00,
2013-07-16 16:54:00,70.0,67.9,30.38,NE,48,1.0,2.0,93,0.00,,,0.62,WeatherCatV1.15B25,2013-07-16 20:54:00,
2013-07-16 16:59:00,69.9,68.1,30.39,NE,49,0.0,0.0,94,0.00,,,0.62,WeatherCatV1.15B25,2013-07-16 20:59:00,
2013-07-16 17:04:00,69.8,68.3,30.38,NE,49,0.0,0.0,95,0.00,,,0.62,WeatherCatV1.15B25,2013-07-16 21:04:00,
2013-07-16 17:09:00,69.8,68.3,30.38,NE,48,0.0,2.0,95,0.00,,,0.62,WeatherCatV1.15B25,2013-07-16 21:09:00,
2013-07-16 17:14:00,70.0,68.5,30.38,NE,44,0.0,2.0,95,0.00,,,0.62,WeatherCatV1.15B25,2013-07-16 21:14:00,
2013-07-16 17:19:00,70.2,68.7,30.38,NE,44,0.0,0.0,95,0.00,,,0.62,WeatherCatV1.15B25,2013-07-16 21:19:00,
2013-07-16 17:24:00,70.8,69.9,30.38,NE,44,0.0,0.0,97,0.00,,,0.62,WeatherCatV1.15B25,2013-07-16 21:24:00,
2013-07-16 17:29:00,71.5,70.6,30.38,NE,44,0.0,0.0,97,0.00,,,0.62,WeatherCatV1.15B25,2013-07-16 21:29:00,
2013-07-16 17:34:00,72.1,70.9,30.38,NE,44,0.0,0.0,96,0.00,,,0.62,WeatherCatV1.15B25,2013-07-16 21:34:00,
2013-07-16 17:39:00,72.5,71.3,30.38,NE,44,2.0,2.0,96,0.00,,,0.62,WeatherCatV1.15B25,2013-07-16 21:39:00,
2013-07-16 17:44:00,72.8,71.3,30.37,NE,43,2.0,2.0,95,0.00,,,0.62,WeatherCatV1.15B25,2013-07-16 21:44:00,
2013-07-16 17:49:00,72.7,70.2,30.38,NE,42,2.0,3.0,92,0.00,,,0.62,WeatherCatV1.15B25,2013-07-16 21:49:00,
2013-07-16 17:54:00,72.3,69.8,30.37,NE,38,1.0,3.0,92,0.00,,,0.62,WeatherCatV1.15B25,2013-07-16 21:54:00,
2013-07-16 17:59:00,72.2,70.1,30.37,NNE,20,3.0,3.0,93,0.00,,,0.62,WeatherCatV1.15B25,2013-07-16 21:59:00,
2013-07-16 18:04:00,72.1,70.3,30.37,NNE,28,2.0,3.0,94,0.00,,,0.62,WeatherCatV1.15B25,2013-07-16 22:04:00,
2013-07-16 18:09:00,71.9,69.8,30.38,NNE,21,2.0,4.0,93,0.00,,,0.62,WeatherCatV1.15B25,2013-07-16 22:09:00,
2013-07-16 18:14:00,71.6,69.8,30.38,NNE,20,2.0,3.0,94,0.00,,,0.62,WeatherCatV1.15B25,2013-07-16 22:14:00,
2013-07-16 18:19:00,71.5,69.7,30.37,NNE,30,2.0,3.0,94,0.00,,,0.62,WeatherCatV1.15B25,2013-07-16 22:19:00,
2013-07-16 18:24:00,71.5,70.0,30.37,NNE,24,2.0,3.0,95,0.00,,,0.62,WeatherCatV1.15B25,2013-07-16 22:24:00,
2013-07-16 18:29:00,71.7,70.5,30.37,NNE,25,0.0,3.0,96,0.00,,,0.62,WeatherCatV1.15B25,2013-07-16 22:29:00,
2013-07-16 18:34:00,71.9,70.7,30.37,NNE,24,1.0,2.0,96,0.00,,,0.62,WeatherCatV1.15B25,2013-07-16 22:34:00,
2013-07-16 18:39:00,71.8,70.3,30.37,NNE,25,2.0,3.0,95,0.00,,,0.62,WeatherCatV1.15B25,2013-07-16 22:39:00,
2013-07-16 18:44:00,71.5,69.7,30.38,NE,35,3.0,3.0,94,0.00,,,0.62,WeatherCatV1.15B25,2013-07-16 22:44:00,
2013-07-16 18:49:00,71.3,69.5,30.38,NNE,31,2.0,4.0,94,0.00,,,0.62,WeatherCatV1.15B25,2013-07-16 22:49:00,
2013-07-16 18:54:00,71.1,69.3,30.38,NNE,22,2.0,3.0,94,0.00,,,0.62,WeatherCatV1.15B25,2013-07-16 22:54:00,
2013-07-16 18:59:00,71.0,69.5,30.37,NNE,22,1.0,3.0,95,0.00,,,0.62,WeatherCatV1.15B25,2013-07-16 22:59:00,
2013-07-16 19:04:00,71.0,69.5,30.37,NNE,17,1.0,2.0,95,0.00,,,0.62,WeatherCatV1.15B25,2013-07-16 23:04:00,
2013-07-16 19:09:00,71.1,69.6,30.37,NNE,14,1.0,2.0,95,0.00,,,0.62,WeatherCatV1.15B25,2013-07-16 23:09:00,
2013-07-16 19:14:00,71.1,69.6,30.37,NNE,14,2.0,2.0,95,0.00,,,0.62,WeatherCatV1.15B25,2013-07-16 23:14:00,
2013-07-16 19:19:00,71.1,69.6,30.37,NNE,15,1.0,2.0,95,0.00,,,0.62,WeatherCatV1.15B25,2013-07-16 23:19:00,
2013-07-16 19:24:00,71.2,69.7,30.38,NNE,17,1.0,3.0,95,0.00,,,0.62,WeatherCatV1.15B25,2013-07-16 23:24:00,
2013-07-16 19:29:00,71.2,69.7,30.38,NNE,17,3.0,3.0,95,0.00,,,0.62,WeatherCatV1.15B25,2013-07-16 23:29:00,
2013-07-16 19:34:00,71.3,69.8,30.38,NNE,18,2.0,2.0,95,0.00,,,0.62,WeatherCatV1.15B25,2013-07-16 23:34:00,
2013-07-16 19:39:00,71.4,69.9,30.38,NNE,20,1.0,3.0,95,0.00,,,0.62,WeatherCatV1.15B25,2013-07-16 23:39:00,
2013-07-16 19:44:00,71.5,70.0,30.38,NNE,20,0.0,1.0,95,0.00,,,0.62,WeatherCatV1.15B25,2013-07-16 23:44:00,
2013-07-16 19:49:00,71.6,70.1,30.38,NNE,20,1.0,2.0,95,0.00,,,0.62,WeatherCatV1.15B25,2013-07-16 23:49:00,
2013-07-16 19:54:00,71.6,70.1,30.38,NNE,19,1.0,2.0,95,0.00,,,0.62,WeatherCatV1.15B25,2013-07-16 23:54:00,
2013-07-16 19:59:00,71.7,70.2,30.38,NNE,19,1.0,2.0,95,0.00,,,0.62,WeatherCatV1.15B25,2013-07-16 23:59:00,
2013-07-16 20:09:00,71.6,69.5,30.38,NNE,19,1.0,2.0,93,0.00,,,0.62,WeatherCatV1.15B25,2013-07-17 00:09:00,
2013-07-16 20:14:00,71.6,70.1,30.38,NNE,19,0.0,2.0,95,0.00,,,0.62,WeatherCatV1.15B25,2013-07-17 00:14:00,
2013-07-16 20:19:00,71.7,70.2,30.39,NNE,19,1.0,2.0,95,0.00,,,0.62,WeatherCatV1.15B25,2013-07-17 00:19:00,
2013-07-16 20:24:00,71.7,70.2,30.39,NNE,19,0.0,1.0,95,0.00,,,0.62,WeatherCatV1.15B25,2013-07-17 00:24:00,
2013-07-16 20:29:00,71.7,70.2,30.38,NNE,19,1.0,2.0,95,0.00,,,0.62,WeatherCatV1.15B25,2013-07-17 00:29:00,
2013-07-16 20:34:00,71.7,70.2,30.38,NNE,19,0.0,0.0,95,0.00,,,0.62,WeatherCatV1.15B25,2013-07-17 00:34:00,
2013-07-16 20:39:00,71.8,70.6,30.38,NNE,19,0.0,0.0,96,0.00,,,0.62,WeatherCatV1.15B25,2013-07-17 00:39:00,
2013-07-16 20:44:00,71.8,70.6,30.38,NNE,19,0.0,0.0,96,0.00,,,0.62,WeatherCatV1.15B25,2013-07-17 00:44:00,
2013-07-16 20:49:00,71.8,70.6,30.38,NNE,19,0.0,0.0,96,0.00,,,0.62,WeatherCatV1.15B25,2013-07-17 00:49:00,
2013-07-16 20:54:00,71.6,70.1,30.38,NNE,19,0.0,0.0,95,0.00,,,0.62,WeatherCatV1.15B25,2013-07-17 00:54:00,
2013-07-16 20:59:00,71.4,69.6,30.38,NNE,19,0.0,0.0,94,0.00,,,0.62,WeatherCatV1.15B25,2013-07-17 00:59:00,
2013-07-16 21:04:00,71.2,69.4,30.38,NNE,19,0.0,0.0,94,0.00,,,0.62,WeatherCatV1.15B25,2013-07-17 01:04:00,
2013-07-16 21:09:00,71.0,69.5,30.38,NNE,19,0.0,0.0,95,0.00,,,0.62,WeatherCatV1.15B25,2013-07-17 01:09:00,
2013-07-16 21:14:00,70.9,69.4,30.38,NNE,19,0.0,0.0,95,0.00,,,0.62,WeatherCatV1.15B25,2013-07-17 01:14:00,
2013-07-16 21:19:00,70.7,69.2,30.38,NNE,19,0.0,0.0,95,0.00,,,0.62,WeatherCatV1.15B25,2013-07-17 01:19:00,
2013-07-16 21:24:00,70.5,69.0,30.39,NNE,19,0.0,0.0,95,0.00,,,0.62,WeatherCatV1.15B25,2013-07-17 01:24:00,
2013-07-16 21:29:00,70.4,69.2,30.39,NNE,19,0.0,0.0,96,0.00,,,0.62,WeatherCatV1.15B25,2013-07-17 01:29:00,
2013-07-16 21:34:00,70.4,69.2,30.39,NNE,19,0.0,0.0,96,0.00,,,0.62,WeatherCatV1.15B25,2013-07-17 01:34:00,
2013-07-16 21:39:00,70.4,69.2,30.39,NNE,19,0.0,0.0,96,0.00,,,0.62,WeatherCatV1.15B25,2013-07-17 01:39:00,
2013-07-16 21:44:00,70.4,69.5,30.39,NNE,19,1.0,2.0,97,0.00,,,0.62,WeatherCatV1.15B25,2013-07-17 01:44:00,
2013-07-16 21:49:00,70.5,69.3,30.40,NNE,19,0.0,0.0,96,0.00,,,0.62,WeatherCatV1.15B25,2013-07-17 01:49:00,
2013-07-16 21:54:00,70.6,69.4,30.40,NNE,19,1.0,1.0,96,0.00,,,0.62,WeatherCatV1.15B25,2013-07-17 01:54:00,
2013-07-16 21:59:00,70.7,69.5,30.40,NNE,19,0.0,0.0,96,0.00,,,0.62,WeatherCatV1.15B25,2013-07-17 01:59:00,
2013-07-16 22:04:00,70.7,69.5,30.39,NNE,19,0.0,0.0,96,0.00,,,0.62,WeatherCatV1.15B25,2013-07-17 02:04:00,
2013-07-16 22:09:00,70.6,69.4,30.40,NNE,19,0.0,0.0,96,0.00,,,0.62,WeatherCatV1.15B25,2013-07-17 02:09:00,
2013-07-16 22:14:00,70.5,69.6,30.40,NNE,19,0.0,1.0,97,0.00,,,0.62,WeatherCatV1.15B25,2013-07-17 02:14:00,
2013-07-16 22:19:00,70.6,69.7,30.40,NNE,19,1.0,2.0,97,0.00,,,0.62,WeatherCatV1.15B25,2013-07-17 02:19:00,
2013-07-16 22:24:00,70.6,69.4,30.40,NNE,19,0.0,1.0,96,0.00,,,0.62,WeatherCatV1.15B25,2013-07-17 02:24:00,
2013-07-16 22:29:00,70.6,69.4,30.40,NNE,19,0.0,0.0,96,0.00,,,0.62,WeatherCatV1.15B25,2013-07-17 02:29:00,
2013-07-16 22:34:00,70.6,69.4,30.40,NNE,19,0.0,0.0,96,0.00,,,0.62,WeatherCatV1.15B25,2013-07-17 02:34:00,
2013-07-16 22:39:00,70.5,69.3,30.40,NNE,19,0.0,0.0,96,0.00,,,0.62,WeatherCatV1.15B25,2013-07-17 02:39:00,
2013-07-16 22:44:00,70.4,69.2,30.40,NNE,19,0.0,1.0,96,0.00,,,0.62,WeatherCatV1.15B25,2013-07-17 02:44:00,
2013-07-16 22:49:00,70.4,69.5,30.40,NNE,19,0.0,0.0,97,0.00,,,0.62,WeatherCatV1.15B25,2013-07-17 02:49:00,
2013-07-16 22:54:00,70.4,69.5,30.40,NNE,19,0.0,0.0,97,0.00,,,0.62,WeatherCatV1.15B25,2013-07-17 02:54:00,
2013-07-16 22:59:00,70.4,69.5,30.40,NNE,19,0.0,0.0,97,0.00,,,0.62,WeatherCatV1.15B25,2013-07-17 02:59:00,
2013-07-16 23:04:00,70.4,69.5,30.40,NNE,19,0.0,0.0,97,0.00,,,0.62,WeatherCatV1.15B25,2013-07-17 03:04:00,
2013-07-16 23:09:00,70.4,69.5,30.40,West,273,0.0,2.0,97,0.00,,,0.62,WeatherCatV1.15B25,2013-07-17 03:09:00,
2013-07-16 23:14:00,70.2,69.0,30.39,West,273,0.0,0.0,96,0.00,,,0.62,WeatherCatV1.15B25,2013-07-17 03:14:00,
2013-07-16 23:19:00,70.1,68.9,30.39,West,273,0.0,0.0,96,0.00,,,0.62,WeatherCatV1.15B25,2013-07-17 03:19:00,
2013-07-16 23:24:00,70.0,68.8,30.39,West,273,0.0,0.0,96,0.00,,,0.62,WeatherCatV1.15B25,2013-07-17 03:24:00,
2013-07-16 23:29:00,69.9,69.0,30.39,West,273,0.0,0.0,97,0.00,,,0.62,WeatherCatV1.15B25,2013-07-17 03:29:00,
2013-07-16 23:34:00,69.8,68.9,30.39,West,273,0.0,0.0,97,0.00,,,0.62,WeatherCatV1.15B25,2013-07-17 03:34:00,
2013-07-16 23:39:00,69.8,68.9,30.39,West,273,0.0,0.0,97,0.00,,,0.62,WeatherCatV1.15B25,2013-07-17 03:39:00,
2013-07-16 23:44:00,69.8,68.9,30.39,West,273,0.0,0.0,97,0.00,,,0.62,WeatherCatV1.15B25,2013-07-17 03:44:00,
2013-07-16 23:49:00,69.7,68.8,30.39,West,273,0.0,0.0,97,0.00,,,0.62,WeatherCatV1.15B25,2013-07-17 03:49:00,
2013-07-16 23:59:00,69.6,68.7,30.39,West,273,0.0,0.0,97,0.00,,,0.62,WeatherCatV1.15B25,2013-07-17 03:59:00,